Time;durP1;ratioP1;P1;durP2;ratioP2;P2;SDS_P1;SDS_P2;PMS_P1;PMS_P2;Temp;Humidity;BMP_temperature;BMP_pressure;BME280_temperature;BME280_humidity;BME280_pressure;Samples;Min_cycle;Max_cycle;Signal;HPM_P1;HPM_P2
2022/10/05 00:02:13;;;;;;;;;;;;;;;12.29;97.51;101160.38;10061771;29;19928;-69
2022/10/05 00:07:18;;;;;;;;;;;;;;;12.31;98.06;101153.44;10061884;29;20332;-77
2022/10/05 00:12:21;;;;;;;;;;;;;;;12.36;97.59;101151.69;10062820;29;19954;-80
2022/10/05 00:17:27;;;;;;;;;;;;;;;12.36;97.35;101151.69;10064485;29;19933;-75
2022/10/05 00:22:31;;;;;;;;;;;;;;;12.36;97.14;101151.69;10064493;29;19995;-72
2022/10/05 00:27:36;;;;;;;;;;;;;;;12.45;97.48;101149.03;10064161;29;19928;-78
2022/10/05 00:32:41;;;;;;;;;;;;;;;12.49;96.69;101136.00;10064015;29;20019;-74
2022/10/05 00:37:45;;;;;;;;;;;;;;;12.49;96.90;101143.81;10063583;29;19929;-74
2022/10/05 00:42:54;;;;;;;;;;;;;;;12.45;97.07;101141.22;10063235;29;19961;-75
2022/10/05 00:48:06;;;;;;;;;;;;;;;12.42;97.14;101141.25;9727354;29;9999883;-74
2022/10/05 00:53:16;;;;;;;;;;;;;;;12.51;97.11;101156.84;10060385;29;20007;-74
2022/10/05 00:58:25;;;;;;;;;;;;;;;12.45;97.36;101164.66;10059892;29;19968;-64
2022/10/05 01:03:34;;;;;;;;;;;;;;;12.38;98.20;101156.03;10059758;29;19938;-67
2022/10/05 01:08:43;;;;;;;;;;;;;;;12.33;98.29;101151.72;10059659;29;20247;-66
2022/10/05 01:13:51;;;;;;;;;;;;;;;12.37;98.37;101149.06;10059479;29;19939;-77
2022/10/05 01:18:59;;;;;;;;;;;;;;;12.46;97.02;101154.25;10059515;29;19936;-74
2022/10/05 01:24:17;;;;;;;;;;;;;;;12.49;97.25;101154.22;10059782;29;20422;-76
2022/10/05 01:29:23;;;;;;;;;;;;;;;12.49;96.69;101150.78;10057327;29;19979;-71
2022/10/05 01:34:33;;;;;;;;;;;;;;;12.43;97.13;101149.06;9725175;29;10000469;-72
2022/10/05 01:39:42;;;;;;;;;;;;;;;12.41;97.25;101149.91;10059334;29;19940;-72
2022/10/05 01:44:51;;;;;;;;;;;;;;;12.31;97.47;101143.03;10059377;29;19950;-72
2022/10/05 01:49:59;;;;;;;;;;;;;;;12.31;97.88;101143.91;10058824;29;20023;-71
2022/10/05 01:55:09;;;;;;;;;;;;;;;12.45;97.69;101152.53;10061075;29;19932;-70
2022/10/05 02:00:16;;;;;;;;;;;;;;;12.48;96.64;101160.31;10066259;29;20318;-65
2022/10/05 02:05:21;;;;;;;;;;;;;;;12.33;98.45;101168.19;10067022;29;20350;-63
2022/10/05 02:10:26;;;;;;;;;;;;;;;12.30;98.47;101165.63;10066134;29;20003;-70
2022/10/05 02:15:33;;;;;;;;;;;;;;;12.38;97.93;101155.16;10065940;29;20321;-69
2022/10/05 02:20:39;;;;;;;;;;;;;;;12.43;97.65;101138.63;10065821;29;19936;-71
2022/10/05 02:25:45;;;;;;;;;;;;;;;12.37;98.61;101127.41;10065681;29;19928;-71
2022/10/05 02:30:52;;;;;;;;;;;;;;;12.32;99.07;101103.13;10065310;29;19928;-68
2022/10/05 02:35:56;;;;;;;;;;;;;;;12.29;98.35;101092.72;10065754;29;19932;-70
2022/10/05 02:41:03;;;;;;;;;;;;;;;12.17;99.95;101116.19;10065254;29;20299;-69
2022/10/05 02:46:12;;;;;;;;;;;;;;;12.21;100.00;101110.13;10065400;29;19928;-70
2022/10/05 02:51:18;;;;;;;;;;;;;;;12.12;100.00;101115.34;10065020;29;20262;-63
2022/10/05 02:56:26;;;;;;;;;;;;;;;12.00;100.00;101108.47;10064337;29;20015;-64
2022/10/05 03:01:34;;;;;;;;;;;;;;;11.96;100.00;101113.72;10064549;29;19971;-74
2022/10/05 03:06:40;;;;;;;;;;;;;;;11.90;100.00;101118.91;10062984;29;20370;-74
2022/10/05 03:11:45;;;;;;;;;;;;;;;11.96;100.00;101137.13;10063749;29;20355;-71
2022/10/05 03:16:54;;;;;;;;;;;;;;;12.00;100.00;101144.03;10064088;29;19935;-77
2022/10/05 03:22:00;;;;;;;;;;;;;;;12.08;100.00;101139.69;10063432;29;20343;-73
2022/10/05 03:27:07;;;;;;;;;;;;;;;12.12;100.00;101152.66;10063134;29;19946;-74
2022/10/05 03:32:15;;;;;;;;;;;;;;;12.17;100.00;101156.09;10063341;29;19987;-73
2022/10/05 03:37:22;;;;;;;;;;;;;;;12.19;100.00;101149.16;10062937;29;19943;-72
2022/10/05 03:42:31;;;;;;;;;;;;;;;12.26;100.00;101140.47;10062780;29;19939;-73
2022/10/05 03:47:39;;;;;;;;;;;;;;;12.22;100.00;101136.13;10062746;29;19938;-69
2022/10/05 03:52:44;;;;;;;;;;;;;;;12.14;100.00;101119.69;10064453;29;20062;-71
2022/10/05 03:57:48;;;;;;;;;;;;;;;12.08;100.00;101126.66;10065820;29;19938;-73
2022/10/05 04:02:57;;;;;;;;;;;;;;;12.06;100.00;101126.66;10064974;29;20342;-72
2022/10/05 04:08:04;;;;;;;;;;;;;;;12.08;100.00;101119.72;10064987;29;20420;-74
2022/10/05 04:13:12;;;;;;;;;;;;;;;11.94;100.00;101116.28;10065051;29;19932;-70
2022/10/05 04:18:20;;;;;;;;;;;;;;;11.85;100.00;101113.75;10064179;29;19928;-74
2022/10/05 04:23:30;;;;;;;;;;;;;;;11.77;100.00;101115.47;10064412;29;19928;-69
2022/10/05 04:28:39;;;;;;;;;;;;;;;11.81;100.00;101113.72;10064132;29;19932;-73
2022/10/05 04:33:48;;;;;;;;;;;;;;;11.74;100.00;101122.41;10064162;29;19928;-75
2022/10/05 04:38:56;;;;;;;;;;;;;;;11.85;100.00;101125.88;10063294;29;19932;-74
2022/10/05 04:44:13;;;;;;;;;;;;;;;11.82;100.00;101131.94;10064798;29;19932;-73
2022/10/05 04:49:34;;;;;;;;;;;;;;;11.82;100.00;101144.09;10063899;29;20022;-74
2022/10/05 04:54:44;;;;;;;;;;;;;;;11.78;100.00;101135.44;10063218;29;20273;-70
2022/10/05 04:59:59;;;;;;;;;;;;;;;11.72;100.00;101132.00;10062911;29;19928;-72
2022/10/05 05:05:16;;;;;;;;;;;;;;;11.68;100.00;101130.25;10063612;29;19928;-70
2022/10/05 05:10:27;;;;;;;;;;;;;;;11.69;100.00;101142.38;10062599;29;20318;-74
2022/10/05 05:15:38;;;;;;;;;;;;;;;11.71;100.00;101154.53;10062477;29;19968;-73
2022/10/05 05:20:51;;;;;;;;;;;;;;;11.72;100.00;101150.19;10062469;29;20323;-73
2022/10/05 05:25:59;;;;;;;;;;;;;;;11.76;100.00;101146.69;10062237;29;20358;-71
2022/10/05 05:31:06;;;;;;;;;;;;;;;11.85;100.00;101151.88;10060939;29;19928;-73
2022/10/05 05:36:16;;;;;;;;;;;;;;;11.86;100.00;101148.41;10058772;29;19932;-75
2022/10/05 05:41:30;;;;;;;;;;;;;;;11.97;100.00;101157.06;9384268;29;10000684;-75
2022/10/05 05:46:36;;;;;;;;;;;;;;;11.93;100.00;101130.19;10052519;29;19932;-73
2022/10/05 05:52:03;;;;;;;;;;;;;;;11.87;100.00;101144.94;10054132;29;20556;-74
2022/10/05 05:57:09;;;;;;;;;;;;;;;11.93;100.00;101150.13;10052922;29;19972;-74
2022/10/05 06:02:14;;;;;;;;;;;;;;;12.02;100.00;101152.69;10057551;29;19928;-73
2022/10/05 06:07:21;;;;;;;;;;;;;;;12.04;100.00;101144.03;10056805;29;19928;-73
2022/10/05 06:12:32;;;;;;;;;;;;;;;11.99;100.00;101161.41;10058099;29;20459;-72
2022/10/05 06:17:39;;;;;;;;;;;;;;;12.13;100.00;101154.38;10027068;29;19936;-75
2022/10/05 06:22:44;;;;;;;;;;;;;;;12.22;100.00;101143.06;10019858;29;19992;-72
2022/10/05 06:28:02;;;;;;;;;;;;;;;12.24;100.00;101143.94;10020132;29;20007;-74
2022/10/05 06:33:14;;;;;;;;;;;;;;;12.27;100.00;101130.94;10019800;29;19980;-76
2022/10/05 06:38:34;;;;;;;;;;;;;;;12.28;100.00;101143.06;10024585;29;20402;-73
2022/10/05 06:43:44;;;;;;;;;;;;;;;12.25;100.00;101146.53;10064161;29;19928;-72
2022/10/05 06:48:57;;;;;;;;;;;;;;;12.29;100.00;101155.19;10027436;29;19928;-75
2022/10/05 06:54:06;;;;;;;;;;;;;;;12.39;100.00;101159.50;10026718;29;19942;-73
2022/10/05 06:59:14;;;;;;;;;;;;;;;12.43;100.00;101172.50;10064047;29;19938;-75
2022/10/05 07:04:39;;;;;;;;;;;;;;;12.39;100.00;101167.31;10064194;29;20019;-75
2022/10/05 07:09:50;;;;;;;;;;;;;;;12.49;100.00;101159.44;10063830;29;20012;-75
2022/10/05 07:15:01;;;;;;;;;;;;;;;12.66;100.00;101157.63;10063390;29;20281;-74
2022/10/05 07:20:12;;;;;;;;;;;;;;;12.87;100.00;101156.63;10063028;29;20252;-72
2022/10/05 07:25:19;;;;;;;;;;;;;;;12.74;100.00;101145.41;10065784;29;19928;-73
2022/10/05 07:30:22;;;;;;;;;;;;;;;12.87;100.00;101142.72;10066447;29;20024;-74
2022/10/05 07:40:57;;;;;;;;;;;;;;;13.19;100.00;101144.25;10062380;29;20031;-75
2022/10/05 07:46:06;;;;;;;;;;;;;;;13.36;100.00;101134.53;10061780;29;19928;-76
2022/10/05 07:51:15;;;;;;;;;;;;;;;13.45;99.33;101130.97;10062209;29;20011;-79
2022/10/05 07:56:23;;;;;;;;;;;;;;;13.59;98.66;101119.53;10052813;29;20282;-76
2022/10/05 08:01:28;;;;;;;;;;;;;;;13.64;97.98;101125.56;10054029;29;19928;-73
2022/10/05 08:06:49;;;;;;;;;;;;;;;13.57;96.63;101126.50;10052049;29;20419;-72
2022/10/05 08:11:57;;;;;;;;;;;;;;;13.64;96.22;101122.09;10023527;29;20351;-77
2022/10/05 08:17:03;;;;;;;;;;;;;;;13.82;95.32;101116.69;10023322;29;20027;-72
2022/10/05 08:22:08;;;;;;;;;;;;;;;13.81;93.81;101114.94;10022950;29;19964;-73
2022/10/05 08:27:17;;;;;;;;;;;;;;;13.93;93.22;101105.22;10023257;29;20015;-74
2022/10/05 08:32:22;;;;;;;;;;;;;;;14.35;92.00;101097.78;10024846;29;19935;-69
2022/10/05 08:37:29;;;;;;;;;;;;;;;14.40;91.54;101089.00;10046551;29;20023;-67
2022/10/05 08:42:48;;;;;;;;;;;;;;;14.54;90.51;101094.00;10022709;29;19939;-71
2022/10/05 08:48:15;;;;;;;;;;;;;;;14.69;90.03;101104.22;10022212;29;19943;-72
2022/10/05 08:53:25;;;;;;;;;;;;;;;14.76;89.83;101092.81;10022006;29;19938;-70
2022/10/05 08:58:42;;;;;;;;;;;;;;;14.82;89.08;101095.34;10021553;29;20770;-71
2022/10/05 09:03:59;;;;;;;;;;;;;;;14.98;88.96;101088.97;10021363;29;20015;-71
2022/10/05 09:09:17;;;;;;;;;;;;;;;15.11;88.76;101069.59;10021398;29;19928;-63
2022/10/05 09:14:31;;;;;;;;;;;;;;;15.26;88.53;101068.44;10019807;29;20027;-65
2022/10/05 09:19:51;;;;;;;;;;;;;;;15.46;87.56;101061.97;10020973;29;20016;-69
2022/10/05 09:24:56;;;;;;;;;;;;;;;15.53;87.17;101045.28;10021036;29;19932;-67
2022/10/05 09:30:10;;;;;;;;;;;;;;;15.59;86.89;101050.41;10020728;29;19956;-67
2022/10/05 09:35:27;;;;;;;;;;;;;;;15.71;86.38;101055.41;10044911;29;19983;-70
2022/10/05 09:40:48;;;;;;;;;;;;;;;15.83;85.00;101055.16;10027735;29;20282;-71
2022/10/05 09:46:09;;;;;;;;;;;;;;;15.90;84.91;101034.94;10020424;29;19929;-70
2022/10/05 09:51:29;;;;;;;;;;;;;;;16.07;84.36;101048.53;10020721;29;19932;-72
2022/10/05 09:56:42;;;;;;;;;;;;;;;16.19;83.33;101043.91;10020427;29;20302;-72
2022/10/05 10:01:58;;;;;;;;;;;;;;;16.48;82.54;101045.88;10057099;29;20409;-71
2022/10/05 10:07:14;;;;;;;;;;;;;;;16.67;82.12;101060.28;10056939;29;19936;-71
2022/10/05 10:12:25;;;;;;;;;;;;;;;16.88;79.81;101061.53;10020018;29;19932;-73
2022/10/05 10:17:35;;;;;;;;;;;;;;;17.20;78.14;101056.34;10024936;29;19929;-73
2022/10/05 10:22:59;;;;;;;;;;;;;;;17.48;75.96;101067.00;10028055;29;19984;-69
2022/10/05 10:28:24;;;;;;;;;;;;;;;17.78;74.73;101059.13;10028321;29;19932;-72
2022/10/05 10:33:41;;;;;;;;;;;;;;;18.40;72.45;101055.53;10015127;29;19942;-75
2022/10/05 10:38:53;;;;;;;;;;;;;;;18.23;72.58;101056.94;10029711;29;20011;-74
2022/10/05 10:44:09;;;;;;;;;;;;;;;17.94;72.01;101031.53;10029917;29;19938;-75
2022/10/05 10:49:21;;;;;;;;;;;;;;;18.21;72.15;101014.06;10029662;29;19975;-73
2022/10/05 10:54:33;;;;;;;;;;;;;;;18.54;69.86;100999.03;10030428;29;19936;-75
2022/10/05 10:59:54;;;;;;;;;;;;;;;19.01;69.08;100993.06;10029213;29;20358;-79
2022/10/05 11:05:08;;;;;;;;;;;;;;;19.43;68.17;100995.06;10029403;29;20327;-71
2022/10/05 11:10:22;;;;;;;;;;;;;;;19.64;67.49;100987.31;10029081;29;19928;-74
2022/10/05 11:15:34;;;;;;;;;;;;;;;19.47;68.04;100983.50;10028766;29;20011;-70
2022/10/05 11:20:56;;;;;;;;;;;;;;;19.16;67.80;100995.16;10028907;29;20019;-73
2022/10/05 11:26:23;;;;;;;;;;;;;;;18.84;66.93;100987.50;10028052;29;20014;-72
2022/10/05 11:31:44;;;;;;;;;;;;;;;18.67;66.73;100988.09;10019275;29;19928;-72
2022/10/05 11:37:01;;;;;;;;;;;;;;;18.54;66.56;100964.84;10059429;29;19928;-71
2022/10/05 11:42:20;;;;;;;;;;;;;;;19.18;65.08;100974.91;10035578;29;19929;-69
2022/10/05 11:47:26;;;;;;;;;;;;;;;20.23;62.72;100975.34;10066649;29;20310;-74
2022/10/05 11:52:35;;;;;;;;;;;;;;;20.90;62.37;100962.91;10064861;29;19928;-76
2022/10/05 11:57:42;;;;;;;;;;;;;;;20.42;61.82;100964.00;10065350;29;20023;-74
2022/10/05 12:03:08;;;;;;;;;;;;;;;19.95;63.48;100977.34;10038099;29;19932;-72
2022/10/05 12:08:21;;;;;;;;;;;;;;;19.87;62.44;100967.06;10063247;29;20315;-75
2022/10/05 12:13:29;;;;;;;;;;;;;;;19.85;61.71;100968.91;10063559;29;19932;-73
2022/10/05 12:18:46;;;;;;;;;;;;;;;19.58;61.66;100974.34;10064378;29;19960;-72
2022/10/05 12:23:52;;;;;;;;;;;;;;;19.36;61.79;100967.22;10062664;29;19928;-72
2022/10/05 12:28:57;;;;;;;;;;;;;;;19.05;62.10;100965.72;10064108;29;19932;-73
2022/10/05 12:34:05;;;;;;;;;;;;;;;18.90;62.69;100956.59;10038033;29;20027;-72
2022/10/05 12:39:16;;;;;;;;;;;;;;;18.85;63.41;100962.91;10050543;29;19938;-70
2022/10/05 12:44:25;;;;;;;;;;;;;;;18.84;64.02;100966.47;10044698;29;19928;-80
2022/10/05 12:49:45;;;;;;;;;;;;;;;18.68;64.87;100960.88;10061802;29;19980;-71
2022/10/05 12:54:55;;;;;;;;;;;;;;;18.62;65.85;100960.22;10062416;29;20414;-64
2022/10/05 13:00:02;;;;;;;;;;;;;;;18.75;66.35;100964.13;10059311;29;20035;-66
2022/10/05 13:05:15;;;;;;;;;;;;;;;18.73;66.30;100960.69;10043867;29;19958;-64
2022/10/05 13:10:26;;;;;;;;;;;;;;;18.82;65.77;100968.28;10050372;29;19980;-63
2022/10/05 13:15:32;;;;;;;;;;;;;;;18.72;65.95;100965.13;10049895;29;19928;-64
2022/10/05 13:20:39;;;;;;;;;;;;;;;18.72;67.09;100967.75;10056070;29;19935;-62
2022/10/05 13:25:47;;;;;;;;;;;;;;;18.63;67.64;100965.41;10047441;29;19999;-64
2022/10/05 13:30:54;;;;;;;;;;;;;;;18.63;68.48;100964.56;10061350;29;20023;-64
2022/10/05 13:36:01;;;;;;;;;;;;;;;18.54;69.29;100964.84;10061818;29;19928;-66
2022/10/05 13:41:14;;;;;;;;;;;;;;;18.37;69.41;100950.47;10057991;29;20015;-64
2022/10/05 13:46:22;;;;;;;;;;;;;;;18.27;69.61;100966.59;10058976;29;19934;-73
2022/10/05 13:51:29;;;;;;;;;;;;;;;18.06;69.76;100965.50;10060536;29;20028;-76
2022/10/05 13:56:37;;;;;;;;;;;;;;;17.93;70.56;100966.75;10061514;29;19940;-75
2022/10/05 14:01:41;;;;;;;;;;;;;;;17.87;71.50;100968.72;10051661;29;19935;-76
2022/10/05 14:06:44;;;;;;;;;;;;;;;17.79;72.56;100950.56;10034299;29;19928;-75
2022/10/05 14:11:51;;;;;;;;;;;;;;;17.72;73.55;100941.16;10042174;29;19979;-76
2022/10/05 14:16:55;;;;;;;;;;;;;;;17.67;74.23;100935.16;10022406;29;19929;-75
2022/10/05 14:22:00;;;;;;;;;;;;;;;17.61;75.15;100938.00;10051337;29;19928;-77
2022/10/05 14:27:19;;;;;;;;;;;;;;;17.57;75.82;100938.13;10060968;29;19929;-74
2022/10/05 14:32:23;;;;;;;;;;;;;;;17.51;76.84;100939.16;10049862;29;20007;-79
2022/10/05 14:37:31;;;;;;;;;;;;;;;17.44;77.62;100934.09;10054194;29;19938;-80
2022/10/05 14:42:42;;;;;;;;;;;;;;;17.39;78.09;100936.00;10060285;29;19959;-77
2022/10/05 14:47:51;;;;;;;;;;;;;;;17.36;78.75;100931.69;10025795;29;20023;-81
2022/10/05 14:53:03;;;;;;;;;;;;;;;17.34;79.51;100938.75;10057955;29;20011;-78
2022/10/05 14:58:17;;;;;;;;;;;;;;;17.33;80.02;100932.66;10059455;29;20019;-78
2022/10/05 15:03:28;;;;;;;;;;;;;;;17.24;80.81;100932.03;10063997;29;19950;-74
2022/10/05 15:08:48;;;;;;;;;;;;;;;17.22;81.46;100936.47;10030234;29;20046;-73
2022/10/05 15:13:52;;;;;;;;;;;;;;;17.12;82.09;100920.13;10066464;29;19928;-75
2022/10/05 15:19:01;;;;;;;;;;;;;;;17.06;83.00;100922.06;10064980;29;20027;-73
2022/10/05 15:24:07;;;;;;;;;;;;;;;16.98;83.77;100919.63;10063872;29;19929;-73
2022/10/05 15:29:18;;;;;;;;;;;;;;;16.95;84.56;100932.84;10063237;29;19928;-76
2022/10/05 15:34:28;;;;;;;;;;;;;;;16.97;84.68;100917.06;10064306;29;20015;-75
2022/10/05 15:39:35;;;;;;;;;;;;;;;16.86;85.36;100901.59;10065384;29;20012;-79
2022/10/05 15:44:46;;;;;;;;;;;;;;;16.83;86.31;100906.94;10064886;29;19970;-74
2022/10/05 15:49:56;;;;;;;;;;;;;;;16.77;86.97;100901.00;10065219;29;19940;-74
2022/10/05 15:55:18;;;;;;;;;;;;;;;16.68;88.20;100920.47;10063850;29;20413;-75
2022/10/05 16:00:24;;;;;;;;;;;;;;;16.67;88.55;100913.47;10064683;29;20337;-74
2022/10/05 16:10:55;;;;;;;;;;;;;;;16.64;89.12;100910.94;10064232;29;20023;-75
2022/10/05 16:16:01;;;;;;;;;;;;;;;16.61;89.41;100907.53;10061927;29;19935;-75
2022/10/05 16:21:10;;;;;;;;;;;;;;;16.54;90.00;100896.38;10062625;29;20015;-74
2022/10/05 16:26:20;;;;;;;;;;;;;;;16.48;90.77;100880.78;10062334;29;20365;-73
2022/10/05 16:31:29;;;;;;;;;;;;;;;16.44;91.00;100897.47;9725115;29;9999611;-77
2022/10/05 16:36:39;;;;;;;;;;;;;;;16.47;91.43;100879.09;10059436;29;19928;-77
2022/10/05 16:41:46;;;;;;;;;;;;;;;16.44;91.68;100878.25;10059125;29;19928;-79
2022/10/05 16:46:53;;;;;;;;;;;;;;;16.37;91.99;100876.69;10059515;29;19946;-76
2022/10/05 16:51:57;;;;;;;;;;;;;;;16.29;92.77;100886.53;10058916;29;19934;-77
2022/10/05 16:57:05;;;;;;;;;;;;;;;16.30;92.83;100876.00;10059291;29;19979;-75
2022/10/05 17:02:15;;;;;;;;;;;;;;;16.30;92.49;100876.00;10058146;29;19932;-75
2022/10/05 17:07:22;;;;;;;;;;;;;;;16.25;92.91;100883.13;10058744;29;19936;-76
2022/10/05 17:12:33;;;;;;;;;;;;;;;16.26;93.03;100891.81;10058362;29;20027;-76
2022/10/05 17:17:43;;;;;;;;;;;;;;;16.28;92.86;100885.66;10057926;29;20253;-73
2022/10/05 17:22:50;;;;;;;;;;;;;;;16.25;92.75;100890.09;10058671;29;20017;-72
2022/10/05 17:27:54;;;;;;;;;;;;;;;16.20;93.14;100888.44;10058140;29;19928;-70
2022/10/05 17:33:03;;;;;;;;;;;;;;;16.17;93.42;100893.75;9723165;29;10000438;-67
2022/10/05 17:38:13;;;;;;;;;;;;;;;16.16;93.57;100878.09;10058719;29;19951;-70
2022/10/05 17:43:24;;;;;;;;;;;;;;;16.06;94.08;100869.63;10058896;29;20489;-71
2022/10/05 17:48:40;;;;;;;;;;;;;;;16.07;94.39;100870.44;10058720;29;20022;-71
2022/10/05 17:59:08;;;;;;;;;;;;;;;15.96;95.04;100868.09;10058182;29;20015;-68
2022/10/05 18:04:32;;;;;;;;;;;;;;;16.01;95.22;100868.00;10058204;29;19988;-69
2022/10/05 18:09:50;;;;;;;;;;;;;;;15.96;95.21;100868.09;10021869;29;19976;-71
2022/10/05 18:14:56;;;;;;;;;;;;;;;15.86;95.76;100866.59;10044769;29;19975;-69
2022/10/05 18:20:17;;;;;;;;;;;;;;;15.86;95.59;100865.72;10057705;29;20086;-70
2022/10/05 18:25:28;;;;;;;;;;;;;;;15.86;95.32;100860.47;10057692;29;19928;-73
2022/10/05 18:30:36;;;;;;;;;;;;;;;15.83;95.30;100866.66;10057990;29;19932;-71
2022/10/05 18:35:45;;;;;;;;;;;;;;;15.84;95.28;100860.53;10058065;29;20343;-70
2022/10/05 18:40:54;;;;;;;;;;;;;;;15.79;95.21;100867.63;10065299;29;19932;-74
2022/10/05 18:46:04;;;;;;;;;;;;;;;15.79;95.53;100875.47;10065215;29;20410;-70
2022/10/05 18:51:14;;;;;;;;;;;;;;;15.80;95.08;100865.88;10064621;29;20414;-69
2022/10/05 18:56:24;;;;;;;;;;;;;;;15.74;95.57;100874.72;10064349;29;19928;-68
2022/10/05 19:01:46;;;;;;;;;;;;;;;15.73;95.72;100877.38;10056379;29;19939;-72
2022/10/05 19:06:54;;;;;;;;;;;;;;;15.69;95.77;100876.59;10040208;29;19932;-69
2022/10/05 19:12:01;;;;;;;;;;;;;;;15.64;95.38;100862.75;10064581;29;20007;-71
2022/10/05 19:17:19;;;;;;;;;;;;;;;15.63;95.27;100860.19;10063818;29;19955;-69
2022/10/05 19:22:30;;;;;;;;;;;;;;;15.61;95.19;100860.22;10060293;29;19946;-68
2022/10/05 19:27:39;;;;;;;;;;;;;;;15.60;94.51;100858.47;10063368;29;20015;-70
2022/10/05 19:32:46;;;;;;;;;;;;;;;15.55;94.29;100854.25;10063138;29;19928;-68
2022/10/05 19:37:55;;;;;;;;;;;;;;;15.57;93.98;100858.56;10063296;29;19943;-70
2022/10/05 19:43:09;;;;;;;;;;;;;;;15.55;93.98;100862.13;10063527;29;19928;-68
2022/10/05 19:48:20;;;;;;;;;;;;;;;15.54;93.66;100873.47;10056694;29;19939;-72
2022/10/05 19:53:25;;;;;;;;;;;;;;;15.51;93.74;100868.31;10062459;29;20039;-74
2022/10/05 19:58:38;;;;;;;;;;;;;;;15.48;93.54;100863.97;10053824;29;20019;-74
2022/10/05 20:04:00;;;;;;;;;;;;;;;15.40;93.91;100868.53;10056511;29;19947;-73
2022/10/05 20:09:19;;;;;;;;;;;;;;;15.40;94.06;100870.28;10045382;29;20366;-72
2022/10/05 20:14:31;;;;;;;;;;;;;;;15.40;94.10;100872.88;10061077;29;19939;-72
2022/10/05 20:25:08;;;;;;;;;;;;;;;15.35;94.75;100886.03;10060788;29;20014;-74
2022/10/05 20:30:14;;;;;;;;;;;;;;;15.30;94.97;100884.41;10057977;29;20306;-71
2022/10/05 20:35:38;;;;;;;;;;;;;;;15.22;95.17;100892.41;10055805;29;19939;-74
2022/10/05 20:40:41;;;;;;;;;;;;;;;15.20;95.78;100882.88;10059938;29;20361;-73
2022/10/05 20:45:46;;;;;;;;;;;;;;;15.15;95.75;100883.00;10059930;29;20019;-75
2022/10/05 20:50:49;;;;;;;;;;;;;;;15.07;96.08;100884.88;10060147;29;20362;-70
2022/10/05 20:55:52;;;;;;;;;;;;;;;15.06;96.44;100891.00;10060514;29;19964;-73
2022/10/05 21:01:18;;;;;;;;;;;;;;;14.98;96.65;100887.66;10059888;29;20313;-73
2022/10/05 21:06:21;;;;;;;;;;;;;;;14.94;97.02;100901.72;10060437;29;19932;-71
2022/10/05 21:11:26;;;;;;;;;;;;;;;14.91;97.39;100901.75;10059844;29;19954;-71
2022/10/05 21:16:32;;;;;;;;;;;;;;;14.86;97.71;100908.81;10061211;29;19963;-74
2022/10/05 21:21:36;;;;;;;;;;;;;;;14.81;98.04;100905.44;10059553;29;20034;-74
2022/10/05 21:26:40;;;;;;;;;;;;;;;14.77;98.41;100909.00;10059492;29;20031;-74
2022/10/05 21:31:45;;;;;;;;;;;;;;;14.71;98.86;100909.09;10059412;29;20537;-73
2022/10/05 21:36:48;;;;;;;;;;;;;;;14.66;99.48;100908.31;10059876;29;19928;-73
2022/10/05 21:41:51;;;;;;;;;;;;;;;14.62;100.00;100917.97;10058810;29;20014;-62
2022/10/05 21:46:56;;;;;;;;;;;;;;;14.60;100.00;100919.75;10058926;29;19928;-66
2022/10/05 21:52:00;;;;;;;;;;;;;;;14.52;100.00;100920.75;10058779;29;19928;-65
2022/10/05 21:57:03;;;;;;;;;;;;;;;14.46;100.00;100923.50;10059203;29;19936;-74
2022/10/05 22:02:08;;;;;;;;;;;;;;;14.40;100.00;100913.13;10058832;29;19928;-74
2022/10/05 22:07:17;;;;;;;;;;;;;;;14.37;100.00;100923.63;10059079;29;19928;-75
2022/10/05 22:12:20;;;;;;;;;;;;;;;14.34;100.00;100914.09;10061411;29;19928;-74
2022/10/05 22:17:26;;;;;;;;;;;;;;;14.33;100.00;100917.59;10066144;29;20008;-76
2022/10/05 22:22:29;;;;;;;;;;;;;;;14.21;100.00;100924.72;10066494;29;19928;-66
2022/10/05 22:27:34;;;;;;;;;;;;;;;14.16;100.00;100921.34;10066644;29;20342;-75
2022/10/05 22:32:38;;;;;;;;;;;;;;;14.21;100.00;100920.38;10067267;29;19928;-75
2022/10/05 22:37:41;;;;;;;;;;;;;;;14.13;100.00;100918.78;10068703;29;19971;-73
2022/10/05 22:42:45;;;;;;;;;;;;;;;14.05;100.00;100915.44;10068420;29;19963;-76
2022/10/05 22:47:49;;;;;;;;;;;;;;;14.03;100.00;100918.03;10068303;29;19939;-72
2022/10/05 22:52:52;;;;;;;;;;;;;;;13.96;100.00;100926.84;10068065;29;19964;-75
2022/10/05 22:57:55;;;;;;;;;;;;;;;13.87;100.00;100930.44;10067762;29;20005;-80
2022/10/05 23:03:00;;;;;;;;;;;;;;;13.85;100.00;100926.16;10067454;29;20027;-73
2022/10/05 23:08:03;;;;;;;;;;;;;;;13.77;100.00;100936.69;10067608;29;20027;-75
2022/10/05 23:13:07;;;;;;;;;;;;;;;13.73;100.00;100939.38;10067326;29;19928;-74
2022/10/05 23:18:15;;;;;;;;;;;;;;;13.62;100.00;100936.91;10067051;29;19983;-77
2022/10/05 23:23:18;;;;;;;;;;;;;;;13.57;100.00;100935.22;10067219;29;20228;-76
2022/10/05 23:28:21;;;;;;;;;;;;;;;13.55;100.00;100947.44;10066680;29;20014;-73
2022/10/05 23:33:26;;;;;;;;;;;;;;;13.47;100.00;100950.16;10066564;29;19928;-70
2022/10/05 23:38:29;;;;;;;;;;;;;;;13.35;100.00;100955.50;10066464;29;19959;-72
2022/10/05 23:43:33;;;;;;;;;;;;;;;13.32;100.00;100952.91;10066295;29;19928;-76
2022/10/05 23:48:37;;;;;;;;;;;;;;;13.28;100.00;100953.84;10065892;29;19928;-72
2022/10/05 23:53:41;;;;;;;;;;;;;;;13.31;100.00;100940.78;10066023;29;19928;-74
2022/10/05 23:58:44;;;;;;;;;;;;;;;13.28;100.00;100951.25;10065771;29;19936;-79
